Time;durP1;ratioP1;P1;durP2;ratioP2;P2;SDS_P1;SDS_P2;PMS_P1;PMS_P2;Temp;Humidity;BMP_temperature;BMP_pressure;BME280_temperature;BME280_humidity;BME280_pressure;Samples;Min_cycle;Max_cycle;Signal;HPM_P1;HPM_P2
2022/05/24 00:00:50;;;;;;;3.28;2.65;;;;;;;;;;5133659;27;20224;-19
2022/05/24 00:03:19;;;;;;;3.28;2.50;;;;;;;;;;5134975;27;20280;-19
2022/05/24 00:05:47;;;;;;;2.42;2.13;;;;;;;;;;5134685;27;21018;-19
2022/05/24 00:08:14;;;;;;;3.55;1.92;;;;;;;;;;5133308;27;20247;-19
2022/05/24 00:10:41;;;;;;;3.30;2.67;;;;;;;;;;5134412;27;21250;-18
2022/05/24 00:13:10;;;;;;;3.38;2.35;;;;;;;;;;5126700;27;20227;-19
2022/05/24 00:15:38;;;;;;;5.07;2.53;;;;;;;;;;5132542;27;20242;-19
2022/05/24 00:18:07;;;;;;;4.75;3.55;;;;;;;;;;5134265;27;20234;-19
2022/05/24 00:20:35;;;;;;;4.80;2.65;;;;;;;;;;5133668;27;20286;-19
2022/05/24 00:23:03;;;;;;;5.65;3.55;;;;;;;;;;5133242;27;20737;-19
2022/05/24 00:25:31;;;;;;;5.95;3.47;;;;;;;;;;5134601;27;20643;-18
2022/05/24 00:27:58;;;;;;;6.00;3.67;;;;;;;;;;5134156;27;20235;-18
2022/05/24 00:30:26;;;;;;;3.35;3.00;;;;;;;;;;5131115;27;20232;-19
2022/05/24 00:32:53;;;;;;;6.18;3.13;;;;;;;;;;5134195;27;20224;-19
2022/05/24 00:35:22;;;;;;;5.32;3.72;;;;;;;;;;5134303;27;20231;-19
2022/05/24 00:37:49;;;;;;;5.30;3.10;;;;;;;;;;5134099;27;20228;-19
2022/05/24 00:40:21;;;;;;;6.22;3.20;;;;;;;;;;5131839;27;20702;-19
2022/05/24 00:42:48;;;;;;;4.32;3.67;;;;;;;;;;5134053;27;20224;-19
2022/05/24 00:45:16;;;;;;;4.60;3.47;;;;;;;;;;5132721;27;20220;-18
2022/05/24 00:47:44;;;;;;;7.95;3.10;;;;;;;;;;5133430;27;20235;-19
2022/05/24 00:50:13;;;;;;;4.38;3.45;;;;;;;;;;5133893;27;20234;-19
2022/05/24 00:52:44;;;;;;;4.45;3.20;;;;;;;;;;5124301;27;20231;-19
2022/05/24 00:55:12;;;;;;;4.30;2.88;;;;;;;;;;5109264;27;20235;-18
2022/05/24 00:57:40;;;;;;;3.45;3.00;;;;;;;;;;5134229;27;20266;-19
2022/05/24 01:00:09;;;;;;;4.25;3.05;;;;;;;;;;5133027;27;20227;-19
2022/05/24 01:02:36;;;;;;;2.97;2.67;;;;;;;;;;5131676;27;20223;-19
2022/05/24 01:05:05;;;;;;;4.72;3.55;;;;;;;;;;5133667;27;20319;-19
2022/05/24 01:07:32;;;;;;;4.05;3.28;;;;;;;;;;5133810;27;21491;-19
2022/05/24 01:10:01;;;;;;;4.72;3.60;;;;;;;;;;5133641;27;20228;-19
2022/05/24 01:12:29;;;;;;;4.13;3.50;;;;;;;;;;5133003;27;20296;-19
2022/05/24 01:14:57;;;;;;;3.65;3.08;;;;;;;;;;5131421;27;20236;-19
2022/05/24 01:17:25;;;;;;;5.03;3.97;;;;;;;;;;5126096;27;21057;-19
2022/05/24 01:19:52;;;;;;;3.85;3.10;;;;;;;;;;5130680;27;20226;-19
2022/05/24 01:22:28;;;;;;;5.47;3.70;;;;;;;;;;5128155;27;20243;-19
2022/05/24 01:24:57;;;;;;;3.80;3.15;;;;;;;;;;5130034;27;20223;-18
2022/05/24 01:27:25;;;;;;;3.50;2.90;;;;;;;;;;5128393;27;20238;-19
2022/05/24 01:29:53;;;;;;;3.85;3.47;;;;;;;;;;5133128;27;20737;-19
2022/05/24 01:37:50;;;;;;;5.03;4.25;;;;;;;;;;5127498;27;20227;-19
2022/05/24 01:40:18;;;;;;;5.95;4.88;;;;;;;;;;5131827;27;20227;-18
2022/05/24 01:42:46;;;;;;;6.05;4.72;;;;;;;;;;5133421;27;20227;-19
2022/05/24 01:45:15;;;;;;;6.68;4.78;;;;;;;;;;5131652;27;20257;-18
2022/05/24 01:47:43;;;;;;;6.20;5.60;;;;;;;;;;5132960;27;20243;-19
2022/05/24 01:50:11;;;;;;;8.25;5.15;;;;;;;;;;5121131;27;20223;-19
2022/05/24 01:52:39;;;;;;;7.35;5.80;;;;;;;;;;5123079;27;20732;-19
2022/05/24 01:55:07;;;;;;;6.93;6.22;;;;;;;;;;5132986;27;20223;-19
2022/05/24 01:57:35;;;;;;;7.22;6.38;;;;;;;;;;5132822;27;20227;-19
2022/05/24 02:00:04;;;;;;;9.15;6.68;;;;;;;;;;5130431;27;20231;-18
2022/05/24 02:02:32;;;;;;;9.18;6.93;;;;;;;;;;5130643;27;20612;-19
2022/05/24 02:04:59;;;;;;;8.10;6.43;;;;;;;;;;5132611;27;20230;-19
2022/05/24 02:07:27;;;;;;;8.45;6.85;;;;;;;;;;5132464;27;20242;-19
2022/05/24 02:09:54;;;;;;;9.38;7.20;;;;;;;;;;5132631;27;20231;-19
2022/05/24 02:12:22;;;;;;;9.73;7.65;;;;;;;;;;5130867;27;20693;-19
2022/05/24 02:14:51;;;;;;;9.57;7.32;;;;;;;;;;5133004;27;20224;-19
2022/05/24 02:17:21;;;;;;;8.55;7.18;;;;;;;;;;5131134;27;20222;-18
2022/05/24 02:19:49;;;;;;;11.00;7.50;;;;;;;;;;5132466;27;20223;-18
2022/05/24 02:22:17;;;;;;;7.53;6.72;;;;;;;;;;5130490;27;20278;-18
2022/05/24 02:24:45;;;;;;;10.48;8.52;;;;;;;;;;5129407;27;20280;-19
2022/05/24 02:27:13;;;;;;;8.90;7.88;;;;;;;;;;5126972;27;20229;-19
2022/05/24 02:29:41;;;;;;;10.00;8.85;;;;;;;;;;5130175;27;20257;-19
2022/05/24 02:32:08;;;;;;;10.10;8.25;;;;;;;;;;5110135;27;20239;-18
2022/05/24 02:34:37;;;;;;;10.60;8.88;;;;;;;;;;5131847;27;20235;-18
2022/05/24 02:37:05;;;;;;;9.85;8.45;;;;;;;;;;5132182;27;21016;-19
2022/05/24 02:41:28;;;;;;;11.70;9.18;;;;;;;;;;5132213;27;20223;-18
2022/05/24 02:42:19;;;;;;;9.20;8.13;;;;;;;;;;5126846;27;20694;-19
2022/05/24 02:44:46;;;;;;;10.15;8.75;;;;;;;;;;5130148;27;20608;-19
2022/05/24 02:47:14;;;;;;;10.05;9.05;;;;;;;;;;5131100;27;20219;-18
2022/05/24 02:49:43;;;;;;;11.85;8.23;;;;;;;;;;5132096;27;20231;-19
2022/05/24 02:52:10;;;;;;;9.23;7.97;;;;;;;;;;5131386;27;20245;-19
2022/05/24 02:54:37;;;;;;;9.57;8.63;;;;;;;;;;5127200;27;20227;-19
2022/05/24 02:57:05;;;;;;;10.30;9.18;;;;;;;;;;5127169;27;20237;-19
2022/05/24 02:59:33;;;;;;;9.75;8.68;;;;;;;;;;5131987;27;20238;-19
2022/05/24 03:02:04;;;;;;;9.82;8.82;;;;;;;;;;5130607;27;20236;-19
2022/05/24 03:04:31;;;;;;;12.18;9.07;;;;;;;;;;5131558;27;20587;-19
2022/05/24 03:09:45;;;;;;;9.70;7.63;;;;;;;;;;5125808;27;20232;-18
2022/05/24 03:14:58;;;;;;;8.90;7.75;;;;;;;;;;5128806;27;20694;-18
2022/05/24 03:17:25;;;;;;;10.52;7.45;;;;;;;;;;5127812;27;20234;-18
2022/05/24 03:19:52;;;;;;;9.75;7.35;;;;;;;;;;5131623;27;20230;-19
2022/05/24 03:22:21;;;;;;;10.25;7.03;;;;;;;;;;5131623;27;20231;-18
2022/05/24 03:24:48;;;;;;;10.80;6.65;;;;;;;;;;5131413;27;20614;-18
2022/05/24 03:27:17;;;;;;;9.98;6.75;;;;;;;;;;5129944;27;20698;-19
2022/05/24 03:29:44;;;;;;;7.70;6.65;;;;;;;;;;5131684;27;20225;-19
2022/05/24 03:32:12;;;;;;;8.73;5.40;;;;;;;;;;5130795;27;20224;-19
2022/05/24 03:34:40;;;;;;;8.63;6.18;;;;;;;;;;5131799;27;20237;-19
2022/05/24 03:37:07;;;;;;;8.75;5.82;;;;;;;;;;5131602;27;20212;-19
2022/05/24 03:39:36;;;;;;;9.60;5.68;;;;;;;;;;5129919;27;20227;-18
2022/05/24 03:42:03;;;;;;;6.80;5.18;;;;;;;;;;5130825;27;20231;-19
2022/05/24 03:44:31;;;;;;;7.97;5.30;;;;;;;;;;5131302;27;20223;-18
2022/05/24 03:46:58;;;;;;;6.20;4.82;;;;;;;;;;5129637;27;20968;-18
2022/05/24 03:49:25;;;;;;;5.18;4.38;;;;;;;;;;5129948;27;20248;-18
2022/05/24 03:51:53;;;;;;;6.35;4.90;;;;;;;;;;5131160;27;20729;-18
2022/05/24 03:54:20;;;;;;;5.05;4.13;;;;;;;;;;5131411;27;20227;-18
2022/05/24 03:59:34;;;;;;;5.47;4.45;;;;;;;;;;5131239;27;20218;-18
2022/05/24 04:02:01;;;;;;;7.75;5.20;;;;;;;;;;5128914;27;20235;-19
2022/05/24 04:04:29;;;;;;;7.05;4.20;;;;;;;;;;5131374;27;20222;-18
2022/05/24 04:06:56;;;;;;;6.50;4.28;;;;;;;;;;5130386;27;20219;-18
2022/05/24 04:09:24;;;;;;;7.22;4.35;;;;;;;;;;5131029;27;20232;-19
2022/05/24 04:11:55;;;;;;;7.00;4.18;;;;;;;;;;5129651;27;20262;-20
2022/05/24 04:14:22;;;;;;;8.30;4.30;;;;;;;;;;5131566;27;20246;-19
2022/05/24 04:16:49;;;;;;;6.05;4.05;;;;;;;;;;5133150;27;20709;-19
2022/05/24 04:19:17;;;;;;;6.93;4.28;;;;;;;;;;5134442;27;20212;-19
2022/05/24 04:21:44;;;;;;;6.63;3.70;;;;;;;;;;5134078;27;20273;-19
2022/05/24 04:24:11;;;;;;;6.18;4.05;;;;;;;;;;5132946;27;20235;-19
2022/05/24 04:26:38;;;;;;;6.88;3.63;;;;;;;;;;5134291;27;20219;-19
2022/05/24 04:29:07;;;;;;;6.63;3.38;;;;;;;;;;5134384;27;20227;-19
2022/05/24 04:31:34;;;;;;;7.82;3.28;;;;;;;;;;5128079;27;20228;-20
2022/05/24 04:34:02;;;;;;;7.90;3.80;;;;;;;;;;5132922;27;20231;-20
2022/05/24 04:36:31;;;;;;;7.30;3.42;;;;;;;;;;5134572;27;20261;-19
2022/05/24 04:38:58;;;;;;;6.32;3.60;;;;;;;;;;5134423;27;20215;-19
2022/05/24 04:44:12;;;;;;;7.50;3.38;;;;;;;;;;5125300;27;20227;-19
2022/05/24 04:49:24;;;;;;;7.13;3.47;;;;;;;;;;5130085;27;20219;-19
2022/05/24 04:51:52;;;;;;;7.40;3.33;;;;;;;;;;5134038;27;20628;-19
2022/05/24 04:54:20;;;;;;;6.93;3.30;;;;;;;;;;5133810;27;20698;-19
2022/05/24 04:56:47;;;;;;;5.82;3.30;;;;;;;;;;5131808;27;20231;-19
2022/05/24 04:59:16;;;;;;;6.20;3.15;;;;;;;;;;5134244;27;20216;-19
2022/05/24 05:01:44;;;;;;;5.50;3.50;;;;;;;;;;5132701;27;20236;-19
2022/05/24 05:04:11;;;;;;;4.53;3.20;;;;;;;;;;5133511;27;20722;-19
2022/05/24 05:06:38;;;;;;;4.78;2.95;;;;;;;;;;5123953;27;20235;-19
2022/05/24 05:09:06;;;;;;;5.82;3.13;;;;;;;;;;5133346;27;20228;-19
2022/05/24 05:11:33;;;;;;;4.30;3.10;;;;;;;;;;5133681;27;20915;-19
2022/05/24 05:14:00;;;;;;;5.82;3.30;;;;;;;;;;5133544;27;20226;-19
2022/05/24 05:16:29;;;;;;;5.68;2.85;;;;;;;;;;5132134;27;20219;-19
2022/05/24 05:18:56;;;;;;;5.80;3.05;;;;;;;;;;5131644;27;20229;-19
2022/05/24 05:21:24;;;;;;;5.80;3.00;;;;;;;;;;5132802;27;20224;-19
2022/05/24 05:23:51;;;;;;;6.53;3.38;;;;;;;;;;5133275;27;20242;-19
2022/05/24 05:26:18;;;;;;;6.30;3.45;;;;;;;;;;5133644;27;20985;-19
2022/05/24 05:28:46;;;;;;;6.20;3.60;;;;;;;;;;5131674;27;20236;-19
2022/05/24 05:31:22;;;;;;;7.38;3.55;;;;;;;;;;5131815;27;20242;-20
2022/05/24 05:33:51;;;;;;;5.25;2.83;;;;;;;;;;5132896;27;20234;-19
2022/05/24 05:36:19;;;;;;;5.75;3.15;;;;;;;;;;5133006;27;20227;-20
2022/05/24 05:38:47;;;;;;;5.63;3.33;;;;;;;;;;5133158;27;21002;-20
2022/05/24 05:41:14;;;;;;;5.43;3.45;;;;;;;;;;5132073;27;20224;-19
2022/05/24 05:43:42;;;;;;;6.47;3.83;;;;;;;;;;5133313;27;20277;-18
2022/05/24 05:46:09;;;;;;;4.43;3.60;;;;;;;;;;5118615;27;20231;-20
2022/05/24 05:48:36;;;;;;;6.25;3.75;;;;;;;;;;5133131;27;20326;-17
2022/05/24 05:51:05;;;;;;;5.05;3.47;;;;;;;;;;5131361;27;21002;-17
2022/05/24 05:53:33;;;;;;;4.78;3.28;;;;;;;;;;5132870;27;20235;-18
2022/05/24 05:56:00;;;;;;;4.25;3.13;;;;;;;;;;5132764;27;20694;-18
2022/05/24 05:58:27;;;;;;;5.70;3.38;;;;;;;;;;5132748;27;20862;-17
2022/05/24 06:00:55;;;;;;;7.03;3.90;;;;;;;;;;5131645;27;20219;-18
2022/05/24 06:03:22;;;;;;;8.27;3.85;;;;;;;;;;5131643;27;20694;-20
2022/05/24 06:05:50;;;;;;;8.60;3.80;;;;;;;;;;5133105;27;20272;-20
2022/05/24 06:08:19;;;;;;;8.02;3.67;;;;;;;;;;5132675;27;20226;-20
2022/05/24 06:10:48;;;;;;;10.32;4.35;;;;;;;;;;5131630;27;20212;-19
2022/05/24 06:13:15;;;;;;;4.85;3.55;;;;;;;;;;5130670;27;20226;-19
2022/05/24 06:15:43;;;;;;;6.70;3.40;;;;;;;;;;5131111;27;20807;-19
2022/05/24 06:18:10;;;;;;;7.25;3.97;;;;;;;;;;5132884;27;20235;-17
2022/05/24 06:20:37;;;;;;;8.40;3.78;;;;;;;;;;5132560;27;20223;-19
2022/05/24 06:23:05;;;;;;;9.23;4.18;;;;;;;;;;5131904;27;20332;-19
2022/05/24 06:25:33;;;;;;;4.80;3.85;;;;;;;;;;5131407;27;20253;-19
2022/05/24 06:28:01;;;;;;;8.27;4.32;;;;;;;;;;5132438;27;20242;-19
2022/05/24 06:30:32;;;;;;;7.53;4.22;;;;;;;;;;5131120;27;20232;-19
2022/05/24 06:33:00;;;;;;;8.10;4.28;;;;;;;;;;5132408;27;20246;-20
2022/05/24 06:35:27;;;;;;;7.82;3.75;;;;;;;;;;5130528;27;20259;-19
2022/05/24 06:37:54;;;;;;;6.47;3.65;;;;;;;;;;5131490;27;20971;-20
2022/05/24 06:40:22;;;;;;;6.57;3.97;;;;;;;;;;5132187;27;20223;-18
2022/05/24 06:42:51;;;;;;;6.20;4.07;;;;;;;;;;5132258;27;20838;-19
2022/05/24 06:45:18;;;;;;;9.13;3.90;;;;;;;;;;5129782;27;20690;-18
2022/05/24 06:47:45;;;;;;;7.22;4.00;;;;;;;;;;5132392;27;21081;-18
2022/05/24 06:50:13;;;;;;;6.25;4.18;;;;;;;;;;5131971;27;20227;-17
2022/05/24 06:52:40;;;;;;;7.60;4.57;;;;;;;;;;5132058;27;20227;-17
2022/05/24 06:55:08;;;;;;;7.13;4.63;;;;;;;;;;5132005;27;20228;-17
2022/05/24 06:57:35;;;;;;;6.65;4.85;;;;;;;;;;5130590;27;20334;-17
2022/05/24 07:02:49;;;;;;;7.22;4.80;;;;;;;;;;5131847;27;21026;-19
2022/05/24 07:05:19;;;;;;;7.85;5.72;;;;;;;;;;5131666;27;20250;-19
2022/05/24 07:07:46;;;;;;;7.85;5.32;;;;;;;;;;5129943;27;20230;-19
2022/05/24 07:10:15;;;;;;;6.10;4.95;;;;;;;;;;5132093;27;20231;-19
2022/05/24 07:12:45;;;;;;;10.13;5.65;;;;;;;;;;5132048;27;20223;-20
2022/05/24 07:15:13;;;;;;;6.13;5.13;;;;;;;;;;5122998;27;20243;-19
2022/05/24 07:17:41;;;;;;;9.93;5.20;;;;;;;;;;5124166;27;20994;-19
2022/05/24 07:20:09;;;;;;;9.93;5.68;;;;;;;;;;5123721;27;20230;-19
2022/05/24 07:22:37;;;;;;;5.90;5.30;;;;;;;;;;5131284;27;20885;-19
2022/05/24 07:25:06;;;;;;;6.32;4.78;;;;;;;;;;5131059;27;20211;-19
2022/05/24 07:27:34;;;;;;;7.95;5.50;;;;;;;;;;5131528;27;20231;-18
2022/05/24 07:30:01;;;;;;;8.15;5.50;;;;;;;;;;5125411;27;20224;-19
2022/05/24 07:32:31;;;;;;;7.28;5.63;;;;;;;;;;5126302;27;20241;-19
2022/05/24 07:34:59;;;;;;;6.18;5.50;;;;;;;;;;5131629;27;20944;-19
2022/05/24 07:37:27;;;;;;;6.97;5.22;;;;;;;;;;5131315;27;20299;-20
2022/05/24 07:48:10;;;;;;;10.27;5.30;;;;;;;;;;5123658;27;20212;-19
2022/05/24 07:50:38;;;;;;;5.32;4.70;;;;;;;;;;5133125;27;20215;-19
2022/05/24 07:53:05;;;;;;;6.65;5.28;;;;;;;;;;5133205;27;20234;-19
2022/05/24 07:55:32;;;;;;;8.23;5.03;;;;;;;;;;5135040;27;20235;-19
2022/05/24 07:58:00;;;;;;;6.40;4.95;;;;;;;;;;5134934;27;20216;-19
2022/05/24 08:00:27;;;;;;;8.00;5.32;;;;;;;;;;5133518;27;20213;-19
2022/05/24 08:02:54;;;;;;;7.38;4.97;;;;;;;;;;5133346;27;20242;-18
2022/05/24 08:05:23;;;;;;;7.13;5.53;;;;;;;;;;5134600;27;20246;-19
2022/05/24 08:07:51;;;;;;;7.07;5.80;;;;;;;;;;5134611;27;20227;-19
2022/05/24 08:10:18;;;;;;;6.35;5.53;;;;;;;;;;5134566;27;20231;-19
2022/05/24 08:12:45;;;;;;;6.50;5.30;;;;;;;;;;5134711;27;20242;-19
2022/05/24 08:15:13;;;;;;;8.52;5.78;;;;;;;;;;5131513;27;20227;-19
2022/05/24 08:17:40;;;;;;;8.73;5.68;;;;;;;;;;5126649;27;20226;-19
2022/05/24 08:20:09;;;;;;;6.47;5.75;;;;;;;;;;5134136;27;20258;-19
2022/05/24 08:22:38;;;;;;;7.70;5.72;;;;;;;;;;5133858;27;20249;-19
2022/05/24 08:25:06;;;;;;;7.85;5.82;;;;;;;;;;5133265;27;20250;-19
2022/05/24 08:27:33;;;;;;;7.18;5.50;;;;;;;;;;5134597;27;20227;-19
2022/05/24 08:30:01;;;;;;;6.53;5.68;;;;;;;;;;5134315;27;20706;-19
2022/05/24 08:32:28;;;;;;;6.82;5.53;;;;;;;;;;5133105;27;20219;-19
2022/05/24 08:34:56;;;;;;;8.60;5.75;;;;;;;;;;5134080;27;20234;-19
2022/05/24 08:37:23;;;;;;;5.72;5.10;;;;;;;;;;5132944;27;20227;-19
2022/05/24 08:39:57;;;;;;;5.80;4.93;;;;;;;;;;5133712;27;20263;-19
2022/05/24 08:42:26;;;;;;;4.95;4.35;;;;;;;;;;5134188;27;20779;-19
2022/05/24 08:50:30;;;;;;;6.43;4.65;;;;;;;;;;5131570;27;20311;-19
2022/05/24 08:52:59;;;;;;;5.72;3.97;;;;;;;;;;5134294;27;20223;-18
2022/05/24 08:55:28;;;;;;;5.13;4.18;;;;;;;;;;5133475;27;20864;-19
2022/05/24 08:57:56;;;;;;;4.32;3.97;;;;;;;;;;5132011;27;20227;-19
2022/05/24 09:00:24;;;;;;;7.57;4.43;;;;;;;;;;5132487;27;21041;-19
2022/05/24 09:02:51;;;;;;;4.30;3.90;;;;;;;;;;5133881;27;20742;-19
2022/05/24 09:05:20;;;;;;;4.55;4.15;;;;;;;;;;5133107;27;20719;-19
2022/05/24 09:07:52;;;;;;;4.55;4.15;;;;;;;;;;5133613;27;20737;-19
2022/05/24 09:10:20;;;;;;;9.10;4.85;;;;;;;;;;5132321;27;20525;-19
2022/05/24 09:13:01;;;;;;;6.22;4.07;;;;;;;;;;5133794;27;20253;-19
2022/05/24 09:15:31;;;;;;;6.47;4.47;;;;;;;;;;5132486;27;20220;-19
2022/05/24 09:18:02;;;;;;;8.32;4.72;;;;;;;;;;5133421;27;20227;-19
2022/05/24 09:20:31;;;;;;;4.78;4.20;;;;;;;;;;5132357;27;20238;-19
2022/05/24 09:22:59;;;;;;;5.20;4.20;;;;;;;;;;5133188;27;20267;-19
2022/05/24 09:25:26;;;;;;;5.32;4.00;;;;;;;;;;5133638;27;20216;-19
2022/05/24 09:27:54;;;;;;;4.18;3.78;;;;;;;;;;5133345;27;20212;-19
2022/05/24 09:30:24;;;;;;;6.85;3.65;;;;;;;;;;5130914;27;20231;-19
2022/05/24 09:32:51;;;;;;;5.00;3.85;;;;;;;;;;5133190;27;20231;-19
2022/05/24 09:35:20;;;;;;;5.07;3.50;;;;;;;;;;5133407;27;20227;-19
2022/05/24 09:37:48;;;;;;;5.40;4.05;;;;;;;;;;5133192;27;20235;-19
2022/05/24 09:40:19;;;;;;;5.80;3.80;;;;;;;;;;5133542;27;20595;-19
2022/05/24 09:42:47;;;;;;;7.05;4.18;;;;;;;;;;5131099;27;20235;-18
2022/05/24 09:45:15;;;;;;;4.07;3.70;;;;;;;;;;5132142;27;20284;-19
2022/05/24 09:47:52;;;;;;;5.30;3.60;;;;;;;;;;5132902;27;20220;-19
2022/05/24 09:50:29;;;;;;;5.50;3.95;;;;;;;;;;5129760;27;21105;-19
2022/05/24 09:53:08;;;;;;;4.25;3.78;;;;;;;;;;5131418;27;20231;-19
2022/05/24 09:55:38;;;;;;;6.78;4.00;;;;;;;;;;5132338;27;20224;-19
2022/05/24 09:58:15;;;;;;;9.43;4.00;;;;;;;;;;5132764;27;20289;-19
2022/05/24 10:00:47;;;;;;;4.85;3.60;;;;;;;;;;5120654;27;20726;-19
2022/05/24 10:03:17;;;;;;;6.47;4.07;;;;;;;;;;5125019;27;20831;-19
2022/05/24 10:05:44;;;;;;;5.05;3.15;;;;;;;;;;5132946;27;20228;-19
2022/05/24 10:08:12;;;;;;;5.40;3.22;;;;;;;;;;5133529;27;20265;-19
2022/05/24 10:10:47;;;;;;;3.78;3.33;;;;;;;;;;5132973;27;20227;-19
2022/05/24 10:13:16;;;;;;;5.57;3.20;;;;;;;;;;5131646;27;20235;-19
2022/05/24 10:15:59;;;;;;;3.47;2.97;;;;;;;;;;5129806;27;20223;-19
2022/05/24 10:18:32;;;;;;;4.22;3.33;;;;;;;;;;5132606;27;20770;-19
2022/05/24 10:21:03;;;;;;;3.72;3.42;;;;;;;;;;5131826;27;20593;-19
2022/05/24 10:23:34;;;;;;;4.60;4.10;;;;;;;;;;5131890;27;20246;-19
2022/05/24 10:26:09;;;;;;;5.20;4.10;;;;;;;;;;5130987;27;21043;-19
2022/05/24 10:28:38;;;;;;;4.35;3.95;;;;;;;;;;5132771;27;20234;-19
2022/05/24 10:31:09;;;;;;;4.20;3.80;;;;;;;;;;5131035;27;20706;-20
2022/05/24 10:39:19;;;;;;;3.90;3.15;;;;;;;;;;5124190;27;20632;-19
2022/05/24 10:41:51;;;;;;;3.95;3.20;;;;;;;;;;5126044;27;20353;-19
2022/05/24 10:44:20;;;;;;;4.18;2.83;;;;;;;;;;5132060;27;20234;-19
2022/05/24 10:46:49;;;;;;;5.78;2.85;;;;;;;;;;5130384;27;20339;-20
2022/05/24 10:49:21;;;;;;;3.35;2.40;;;;;;;;;;5131048;27;20242;-19
2022/05/24 10:51:49;;;;;;;2.58;2.10;;;;;;;;;;5132364;27;20223;-19
2022/05/24 10:54:21;;;;;;;2.13;1.85;;;;;;;;;;5132213;27;20227;-19
2022/05/24 10:56:49;;;;;;;2.15;1.70;;;;;;;;;;5131907;27;20236;-20
2022/05/24 10:59:19;;;;;;;2.60;1.70;;;;;;;;;;5130643;27;20243;-19
2022/05/24 11:01:50;;;;;;;1.88;1.58;;;;;;;;;;5130791;27;20613;-19
2022/05/24 11:04:22;;;;;;;1.65;1.40;;;;;;;;;;5132140;27;20235;-20
2022/05/24 11:06:53;;;;;;;2.35;1.40;;;;;;;;;;5131978;27;20236;-19
2022/05/24 11:09:22;;;;;;;5.13;1.42;;;;;;;;;;5130609;27;20286;-19
2022/05/24 11:11:50;;;;;;;3.03;1.35;;;;;;;;;;5131350;27;20245;-19
2022/05/24 11:14:19;;;;;;;4.32;1.50;;;;;;;;;;5132087;27;20235;-19
2022/05/24 11:16:47;;;;;;;2.03;1.33;;;;;;;;;;5130234;27;20327;-19
2022/05/24 11:19:15;;;;;;;2.13;1.25;;;;;;;;;;5131548;27;21052;-20
2022/05/24 11:21:45;;;;;;;3.35;1.42;;;;;;;;;;5129956;27;20235;-19
2022/05/24 11:24:13;;;;;;;2.60;1.50;;;;;;;;;;5132872;27;20909;-19
2022/05/24 11:26:41;;;;;;;2.83;1.13;;;;;;;;;;5127829;27;20260;-19
2022/05/24 11:29:13;;;;;;;1.75;1.08;;;;;;;;;;5126838;27;20250;-19
2022/05/24 11:31:41;;;;;;;2.28;1.13;;;;;;;;;;5124523;27;20219;-19
2022/05/24 11:34:12;;;;;;;2.42;1.05;;;;;;;;;;5126862;27;20235;-19
2022/05/24 11:36:41;;;;;;;1.33;1.15;;;;;;;;;;5126971;27;20242;-19
2022/05/24 11:39:11;;;;;;;4.55;1.10;;;;;;;;;;5134954;27;20241;-19
2022/05/24 11:41:38;;;;;;;1.35;1.08;;;;;;;;;;5126778;27;20986;-20
2022/05/24 11:44:07;;;;;;;2.40;0.88;;;;;;;;;;5133704;27;20215;-19
2022/05/24 11:46:46;;;;;;;1.38;0.63;;;;;;;;;;5133751;27;20239;-18
2022/05/24 11:49:28;;;;;;;3.13;0.73;;;;;;;;;;5119626;27;20223;-19
2022/05/24 11:51:56;;;;;;;3.22;1.08;;;;;;;;;;5135874;27;20219;-19
2022/05/24 11:54:42;;;;;;;2.28;0.90;;;;;;;;;;5133054;27;20237;-18
2022/05/24 11:57:24;;;;;;;1.48;0.60;;;;;;;;;;5126696;27;20242;-19
2022/05/24 11:59:52;;;;;;;4.68;0.77;;;;;;;;;;5130477;27;20227;-20
2022/05/24 12:08:23;;;;;;;1.25;0.70;;;;;;;;;;5119450;27;20242;-19
2022/05/24 12:10:51;;;;;;;1.75;0.52;;;;;;;;;;5134635;27;20211;-18
2022/05/24 12:13:26;;;;;;;2.05;0.70;;;;;;;;;;5134692;27;20215;-19
2022/05/24 12:15:54;;;;;;;1.40;0.60;;;;;;;;;;5133044;27;20230;-19
2022/05/24 12:18:24;;;;;;;0.82;0.60;;;;;;;;;;5134538;27;20760;-19
2022/05/24 12:20:56;;;;;;;2.03;0.63;;;;;;;;;;5134462;27;20251;-19
2022/05/24 12:23:33;;;;;;;1.05;0.45;;;;;;;;;;5134515;27;20250;-19
2022/05/24 12:26:03;;;;;;;0.68;0.50;;;;;;;;;;5134254;27;20214;-19
2022/05/24 12:28:43;;;;;;;0.65;0.43;;;;;;;;;;5132452;27;20231;-19
2022/05/24 12:31:15;;;;;;;0.90;0.45;;;;;;;;;;5125262;27;20292;-19
2022/05/24 12:33:45;;;;;;;1.55;0.57;;;;;;;;;;5134301;27;20647;-19
2022/05/24 12:36:19;;;;;;;1.35;0.60;;;;;;;;;;5126609;27;20239;-19
2022/05/24 12:38:47;;;;;;;4.38;0.60;;;;;;;;;;5119629;27;20235;-19
2022/05/24 12:41:15;;;;;;;0.73;0.40;;;;;;;;;;5134244;27;20227;-19
2022/05/24 12:43:54;;;;;;;1.30;0.57;;;;;;;;;;5134850;27;20231;-19
2022/05/24 12:46:22;;;;;;;0.77;0.60;;;;;;;;;;5128043;27;20230;-19
2022/05/24 12:48:50;;;;;;;1.50;0.60;;;;;;;;;;5132330;27;20261;-19
2022/05/24 12:51:18;;;;;;;1.13;0.47;;;;;;;;;;5134190;27;20246;-19
2022/05/24 12:53:46;;;;;;;1.02;0.50;;;;;;;;;;5133385;27;20218;-19
2022/05/24 12:56:15;;;;;;;2.15;0.60;;;;;;;;;;5133910;27;20235;-20
2022/05/24 12:58:43;;;;;;;1.75;0.77;;;;;;;;;;5126522;27;20243;-19
2022/05/24 13:01:13;;;;;;;0.70;0.50;;;;;;;;;;5125066;27;20238;-19
2022/05/24 13:03:48;;;;;;;0.75;0.40;;;;;;;;;;5134038;27;20327;-20
2022/05/24 13:06:22;;;;;;;1.08;0.35;;;;;;;;;;5127946;27;20231;-19
2022/05/24 13:09:04;;;;;;;1.40;0.40;;;;;;;;;;5133612;27;20269;-18
2022/05/24 13:11:32;;;;;;;2.47;0.50;;;;;;;;;;5131892;27;20223;-19
2022/05/24 13:13:59;;;;;;;1.63;0.98;;;;;;;;;;5133585;27;20230;-19
2022/05/24 13:16:29;;;;;;;0.80;0.40;;;;;;;;;;5131916;27;20227;-19
2022/05/24 13:18:56;;;;;;;0.30;0.30;;;;;;;;;;5133016;27;20239;-20
2022/05/24 13:21:23;;;;;;;0.70;0.40;;;;;;;;;;5131489;27;20259;-19
2022/05/24 13:24:06;;;;;;;1.50;0.43;;;;;;;;;;5133537;27;20258;-19
2022/05/24 13:26:33;;;;;;;2.88;0.60;;;;;;;;;;5133747;27;20215;-20
2022/05/24 13:29:15;;;;;;;1.63;0.50;;;;;;;;;;5133864;27;20706;-19
2022/05/24 13:34:29;;;;;;;1.20;0.38;;;;;;;;;;5131041;27;20228;-20
2022/05/24 13:36:57;;;;;;;0.80;0.50;;;;;;;;;;5133173;27;20643;-19
2022/05/24 13:39:25;;;;;;;3.75;1.17;;;;;;;;;;5133001;27;20239;-18
2022/05/24 13:41:57;;;;;;;2.90;0.70;;;;;;;;;;5133176;27;20223;-19
2022/05/24 13:45:00;;;;;;;1.65;0.63;;;;;;;;;;5124391;27;20235;-20
2022/05/24 13:47:34;;;;;;;1.90;0.60;;;;;;;;;;5130314;27;20232;-18
2022/05/24 13:50:15;;;;;;;1.10;0.55;;;;;;;;;;5133068;27;20224;-18
2022/05/24 13:52:52;;;;;;;1.05;0.40;;;;;;;;;;5133647;27;21159;-19
2022/05/24 13:55:21;;;;;;;1.67;0.73;;;;;;;;;;5126327;27;20219;-19
2022/05/24 13:57:58;;;;;;;1.00;0.75;;;;;;;;;;5132909;27;20236;-19
2022/05/24 14:00:36;;;;;;;1.88;0.60;;;;;;;;;;5131501;27;20227;-19
2022/05/24 14:03:25;;;;;;;0.93;0.60;;;;;;;;;;5133104;27;20216;-20
2022/05/24 14:06:03;;;;;;;1.85;0.57;;;;;;;;;;5126361;27;20231;-19
2022/05/24 14:08:30;;;;;;;1.25;0.52;;;;;;;;;;5132700;27;20222;-19
2022/05/24 14:10:58;;;;;;;1.15;0.50;;;;;;;;;;5131771;27;20690;-19
2022/05/24 14:13:25;;;;;;;1.10;0.50;;;;;;;;;;5132860;27;20235;-19
2022/05/24 14:15:52;;;;;;;2.17;0.70;;;;;;;;;;5127139;27;20235;-19
2022/05/24 14:18:20;;;;;;;1.20;0.63;;;;;;;;;;5130788;27;20620;-19
2022/05/24 14:20:47;;;;;;;2.42;0.60;;;;;;;;;;5132789;27;20391;-20
2022/05/24 14:23:16;;;;;;;1.70;0.40;;;;;;;;;;5131974;27;20242;-19
2022/05/24 14:25:45;;;;;;;1.70;0.73;;;;;;;;;;5132418;27;20234;-19
2022/05/24 14:28:12;;;;;;;4.35;0.60;;;;;;;;;;5130866;27;20237;-19
2022/05/24 14:30:40;;;;;;;0.93;0.40;;;;;;;;;;5123227;27;20223;-19
2022/05/24 14:33:07;;;;;;;3.08;0.75;;;;;;;;;;5132159;27;20234;-19
2022/05/24 14:35:35;;;;;;;1.35;0.60;;;;;;;;;;5131953;27;20219;-19
2022/05/24 14:38:02;;;;;;;1.83;0.52;;;;;;;;;;5132420;27;20675;-19
2022/05/24 14:40:37;;;;;;;0.60;0.52;;;;;;;;;;5131422;27;20238;-19
2022/05/24 14:43:05;;;;;;;0.88;0.50;;;;;;;;;;5132300;27;20215;-20
2022/05/24 14:45:32;;;;;;;2.13;0.60;;;;;;;;;;5130788;27;20832;-19
2022/05/24 14:47:59;;;;;;;2.38;0.88;;;;;;;;;;5132226;27;20228;-20
2022/05/24 14:50:27;;;;;;;1.67;0.50;;;;;;;;;;5126024;27;20223;-19
2022/05/24 14:52:54;;;;;;;1.45;0.43;;;;;;;;;;5132005;27;21045;-19
2022/05/24 14:55:22;;;;;;;1.10;0.50;;;;;;;;;;5132439;27;20251;-19
2022/05/24 14:57:51;;;;;;;1.10;0.50;;;;;;;;;;5132110;27;21071;-19
2022/05/24 15:00:20;;;;;;;2.45;0.60;;;;;;;;;;5129422;27;20669;-19
2022/05/24 15:02:47;;;;;;;1.00;0.50;;;;;;;;;;5132016;27;20615;-19
2022/05/24 15:05:15;;;;;;;0.98;0.50;;;;;;;;;;5131826;27;20282;-19
2022/05/24 15:15:59;;;;;;;0.90;0.55;;;;;;;;;;5127941;27;20298;-19
2022/05/24 15:18:26;;;;;;;1.95;0.70;;;;;;;;;;5131566;27;20319;-19
2022/05/24 15:20:54;;;;;;;1.85;0.40;;;;;;;;;;5131813;27;20712;-19
2022/05/24 15:23:21;;;;;;;1.20;0.50;;;;;;;;;;5130003;27;20247;-18
2022/05/24 15:25:49;;;;;;;2.25;0.70;;;;;;;;;;5130853;27;20227;-19
2022/05/24 15:28:18;;;;;;;0.60;0.57;;;;;;;;;;5131674;27;20219;-19
2022/05/24 15:30:46;;;;;;;0.68;0.57;;;;;;;;;;5130248;27;20231;-19
2022/05/24 15:33:13;;;;;;;2.60;0.63;;;;;;;;;;5129543;27;20717;-19
2022/05/24 15:35:41;;;;;;;1.45;0.50;;;;;;;;;;5131427;27;20222;-19
2022/05/24 15:38:08;;;;;;;3.25;0.90;;;;;;;;;;5132085;27;20250;-19
2022/05/24 15:40:35;;;;;;;0.93;0.70;;;;;;;;;;5131638;27;20294;-19
2022/05/24 15:43:04;;;;;;;3.92;0.70;;;;;;;;;;5131755;27;22283;-19
2022/05/24 15:45:33;;;;;;;1.15;0.60;;;;;;;;;;5128610;27;20706;-19
2022/05/24 15:48:00;;;;;;;1.60;0.57;;;;;;;;;;5131526;27;20236;-19
2022/05/24 15:50:28;;;;;;;1.33;0.52;;;;;;;;;;5130657;27;20228;-19
2022/05/24 15:52:58;;;;;;;1.15;0.50;;;;;;;;;;5131271;27;20323;-19